Time;durP1;ratioP1;P1;durP2;ratioP2;P2;SDS_P1;SDS_P2;PMS_P1;PMS_P2;Temp;Humidity;BMP_temperature;BMP_pressure;BME280_temperature;BME280_humidity;BME280_pressure;Samples;Min_cycle;Max_cycle;Signal;HPM_P1;HPM_P2
2021/10/07 00:01:17;;;;;;;;;16.00;13.75;;;;;18.39;53.47;99039.63;4830803;28;102524;-88
2021/10/07 00:03:53;;;;;;;;;14.75;14.75;;;;;18.37;53.92;99039.00;4812929;28;102702;-88
2021/10/07 00:06:21;;;;;;;;;18.00;16.25;;;;;18.38;54.21;99037.09;4826293;28;103963;-88
2021/10/07 00:08:49;;;;;;;;;10.75;10.00;;;;;18.37;54.01;99044.50;4803968;28;111009;-88
2021/10/07 00:11:16;;;;;;;;;15.25;14.00;;;;;18.37;53.66;99033.53;4844648;28;102211;-88
2021/10/07 00:13:43;;;;;;;;;18.75;18.50;;;;;18.36;53.88;99037.38;4832767;28;102606;-88
2021/10/07 00:16:10;;;;;;;;;16.75;14.25;;;;;18.36;54.06;99037.38;4840501;28;102834;-88
2021/10/07 00:18:40;;;;;;;;;15.00;14.75;;;;;18.35;53.86;99043.06;4848053;28;104225;-88
2021/10/07 00:21:07;;;;;;;;;14.25;12.75;;;;;18.35;53.57;99038.44;4831804;28;102237;-88
2021/10/07 00:23:48;;;;;;;;;15.75;14.75;;;;;18.37;53.86;99040.94;4846687;28;102815;-88
2021/10/07 00:26:17;;;;;;;;;18.25;16.25;;;;;18.34;53.40;99042.25;4849306;28;102667;-88
2021/10/07 00:28:44;;;;;;;;;17.00;14.75;;;;;18.33;54.07;99032.34;4847514;28;104271;-88
2021/10/07 00:31:18;;;;;;;;;15.75;14.50;;;;;18.34;53.67;99038.66;4840349;28;102826;-88
2021/10/07 00:39:04;;;;;;;;;17.50;14.25;;;;;18.32;53.86;99044.41;4814041;28;110475;-87
2021/10/07 00:41:33;;;;;;;;;16.50;15.50;;;;;18.32;53.57;99041.66;4821073;28;103125;-88
2021/10/07 00:44:04;;;;;;;;;13.25;13.00;;;;;18.32;54.09;99044.41;4839923;28;104000;-88
2021/10/07 00:46:32;;;;;;;;;16.25;15.00;;;;;18.31;53.43;99050.09;4806898;28;102853;-88
2021/10/07 00:49:00;;;;;;;;;17.50;14.75;;;;;18.29;53.84;99053.91;4839998;28;103575;-88
2021/10/07 00:51:28;;;;;;;;;16.50;15.75;;;;;18.32;54.13;99052.63;4846268;28;102909;-88
2021/10/07 00:53:55;;;;;;;;;18.50;17.75;;;;;18.31;53.81;99047.38;4845573;28;102534;-88
2021/10/07 00:56:22;;;;;;;;;17.50;15.25;;;;;18.30;53.59;99060.22;4849628;28;102549;-87
2021/10/07 00:58:49;;;;;;;;;18.00;15.00;;;;;18.30;54.30;99060.22;4841544;28;104296;-88
2021/10/07 01:01:16;;;;;;;;;15.50;13.50;;;;;18.29;54.01;99058.56;4809184;28;104463;-88
2021/10/07 01:03:44;;;;;;;;;14.50;14.00;;;;;18.29;54.16;99059.38;4792497;28;103512;-88
2021/10/07 01:06:11;;;;;;;;;15.50;13.00;;;;;18.28;54.28;99065.13;4825977;28;102652;-88
2021/10/07 01:08:38;;;;;;;;;15.00;15.00;;;;;18.32;54.07;99062.72;4829535;28;104252;-88
2021/10/07 01:11:05;;;;;;;;;16.75;15.75;;;;;18.30;54.14;99052.00;4833051;28;102491;-88
2021/10/07 01:13:37;;;;;;;;;18.50;16.00;;;;;18.29;53.42;99058.56;4822277;28;102602;-88
2021/10/07 01:16:04;;;;;;;;;16.25;12.00;;;;;18.26;53.87;99056.31;4823322;28;102671;-87
2021/10/07 01:18:32;;;;;;;;;16.75;15.25;;;;;18.27;54.06;99060.72;4843977;28;103984;-88
2021/10/07 01:20:59;;;;;;;;;17.00;16.00;;;;;18.26;53.98;99059.88;4838892;28;110421;-88
2021/10/07 01:23:26;;;;;;;;;15.00;14.50;;;;;18.25;53.92;99057.38;4824905;28;102253;-88
2021/10/07 01:25:53;;;;;;;;;17.50;15.00;;;;;18.27;53.45;99066.19;4841373;28;102213;-88
2021/10/07 01:28:20;;;;;;;;;17.25;16.00;;;;;18.25;54.23;99060.94;4837429;28;104100;-88
2021/10/07 01:30:48;;;;;;;;;16.50;16.00;;;;;18.27;54.25;99063.44;4832374;28;105203;-88
2021/10/07 01:33:15;;;;;;;;;18.75;16.75;;;;;18.25;53.69;99071.88;4812078;28;102289;-88
2021/10/07 01:35:42;;;;;;;;;18.00;17.50;;;;;18.25;53.94;99082.00;4832075;28;102399;-88
2021/10/07 01:38:09;;;;;;;;;18.75;16.25;;;;;18.26;53.48;99064.50;4835850;28;104740;-88
2021/10/07 01:40:36;;;;;;;;;17.50;15.25;;;;;18.25;53.70;99079.25;4831351;28;102518;-88
2021/10/07 01:43:03;;;;;;;;;14.50;14.00;;;;;18.24;53.52;99069.38;4826946;28;102425;-88
2021/10/07 01:45:30;;;;;;;;;13.25;13.25;;;;;18.25;53.60;99073.78;4832499;28;102773;-88
2021/10/07 01:47:57;;;;;;;;;13.75;13.00;;;;;18.24;54.22;99050.22;4843346;28;104511;-88
2021/10/07 01:50:24;;;;;;;;;17.00;16.75;;;;;18.23;53.78;99068.56;4830770;28;103479;-88
2021/10/07 01:52:51;;;;;;;;;18.50;17.00;;;;;18.22;54.05;99069.66;4843121;28;103556;-88
2021/10/07 01:55:18;;;;;;;;;17.50;15.75;;;;;18.22;53.36;99072.38;4848156;28;102474;-88
2021/10/07 01:57:45;;;;;;;;;19.00;17.50;;;;;18.21;53.81;99067.97;4838336;28;104274;-88
2021/10/07 02:00:13;;;;;;;;;16.50;16.00;;;;;18.21;53.93;99056.19;4843282;28;102607;-88
2021/10/07 02:02:40;;;;;;;;;15.00;15.00;;;;;18.21;54.16;99067.13;4824889;28;102164;-88
2021/10/07 02:05:08;;;;;;;;;18.50;18.00;;;;;18.20;53.54;99066.28;4842568;28;102153;-87
2021/10/07 02:07:35;;;;;;;;;13.75;13.00;;;;;18.20;54.02;99058.09;4836412;28;104325;-88
2021/10/07 02:10:05;;;;;;;;;14.25;14.00;;;;;18.20;54.24;99068.19;4844885;28;103010;-88
2021/10/07 02:12:32;;;;;;;;;18.25;17.75;;;;;18.21;54.02;99073.44;4837953;28;102364;-88
2021/10/07 02:14:59;;;;;;;;;19.25;17.75;;;;;18.20;53.59;99076.41;4849588;28;103896;-88
2021/10/07 02:17:26;;;;;;;;;18.25;15.25;;;;;18.17;53.73;99083.22;4841980;28;104234;-88
2021/10/07 02:19:53;;;;;;;;;17.50;15.00;;;;;18.20;53.67;99076.41;4843859;28;102715;-88
2021/10/07 02:22:20;;;;;;;;;17.75;16.25;;;;;18.20;53.54;99088.19;4849726;28;102475;-88
2021/10/07 02:24:47;;;;;;;;;16.75;15.00;;;;;18.20;54.10;99088.19;4834935;28;102490;-88
2021/10/07 02:27:15;;;;;;;;;17.25;15.25;;;;;18.18;54.12;99090.34;4847422;28;104445;-88
2021/10/07 02:29:42;;;;;;;;;14.75;14.75;;;;;18.18;54.14;99089.53;4849922;28;102224;-88
2021/10/07 02:32:09;;;;;;;;;15.00;14.75;;;;;18.16;54.31;99092.47;4843582;28;102404;-88
2021/10/07 02:34:36;;;;;;;;;16.00;15.00;;;;;18.18;53.66;99095.00;4848628;28;102568;-88
2021/10/07 02:37:03;;;;;;;;;18.00;16.25;;;;;18.16;54.30;99097.97;4849192;28;104554;-88
2021/10/07 02:39:30;;;;;;;;;17.75;15.25;;;;;18.18;53.99;99095.81;4838782;28;102545;-87
2021/10/07 02:41:57;;;;;;;;;15.00;14.75;;;;;18.17;53.95;99098.78;4834748;28;102474;-88
2021/10/07 02:44:24;;;;;;;;;15.00;15.00;;;;;18.18;53.47;99101.31;4853043;28;102628;-88
2021/10/07 02:46:51;;;;;;;;;14.25;13.50;;;;;18.16;54.03;99102.59;4818477;28;104246;-88
2021/10/07 02:49:18;;;;;;;;;16.00;14.75;;;;;18.16;53.84;99099.84;4837872;28;102526;-87
2021/10/07 02:51:45;;;;;;;;;19.50;15.25;;;;;18.16;53.73;99113.53;4837667;28;104619;-88
2021/10/07 02:54:12;;;;;;;;;17.25;16.00;;;;;18.16;53.75;99113.53;4823701;28;103179;-88
2021/10/07 02:56:39;;;;;;;;;17.25;16.75;;;;;18.16;54.26;99110.81;4832915;28;105990;-87
2021/10/07 02:59:06;;;;;;;;;16.75;15.00;;;;;18.14;54.26;99111.06;4830039;28;102443;-88
2021/10/07 03:01:33;;;;;;;;;16.25;14.75;;;;;18.12;54.19;99109.63;4840015;28;102523;-88
2021/10/07 03:04:00;;;;;;;;;12.25;11.00;;;;;18.15;54.05;99117.34;4854169;28;105400;-88
2021/10/07 03:06:27;;;;;;;;;16.75;15.00;;;;;18.14;53.61;99115.69;4829622;28;104765;-88
2021/10/07 03:08:58;;;;;;;;;16.75;14.25;;;;;18.15;53.95;99117.34;4837012;28;107264;-88
2021/10/07 03:11:25;;;;;;;;;14.00;14.00;;;;;18.14;54.18;99113.81;4855794;28;110737;-88
2021/10/07 03:13:52;;;;;;;;;14.75;13.75;;;;;18.14;53.87;99115.69;4844228;28;102299;-87
2021/10/07 03:16:19;;;;;;;;;19.25;17.25;;;;;18.13;53.94;99119.50;4833632;28;104303;-88
2021/10/07 03:18:46;;;;;;;;;24.25;18.75;;;;;18.13;53.45;99119.50;4857207;28;102347;-88
2021/10/07 03:21:16;;;;;;;;;17.75;14.75;;;;;18.14;53.82;99112.97;4837644;28;102374;-87
2021/10/07 03:23:43;;;;;;;;;17.25;15.00;;;;;18.13;53.80;99116.75;4841287;28;102302;-88
2021/10/07 03:26:09;;;;;;;;;15.50;14.25;;;;;18.12;53.99;99123.31;4829052;28;104385;-88
2021/10/07 03:28:36;;;;;;;;;18.50;17.25;;;;;18.11;53.71;99124.38;4839385;28;103200;-87
2021/10/07 03:31:03;;;;;;;;;19.00;18.00;;;;;18.12;54.42;99128.78;4847045;28;102731;-88
2021/10/07 03:33:30;;;;;;;;;16.00;14.75;;;;;18.11;53.69;99127.09;4828139;28;103934;-88
2021/10/07 03:35:57;;;;;;;;;17.50;16.00;;;;;18.11;53.60;99132.56;4843571;28;104145;-88
2021/10/07 03:38:25;;;;;;;;;17.00;16.00;;;;;18.08;54.07;99124.84;4851991;28;106393;-88
2021/10/07 03:40:52;;;;;;;;;18.75;15.75;;;;;18.08;53.81;99125.69;4849247;28;102340;-88
2021/10/07 03:43:19;;;;;;;;;12.25;11.75;;;;;18.12;54.18;99131.50;4840894;28;102597;-88
2021/10/07 03:45:46;;;;;;;;;16.25;15.00;;;;;18.10;53.92;99139.16;4828024;28;105021;-88
2021/10/07 03:48:13;;;;;;;;;15.50;14.25;;;;;18.10;54.22;99139.94;4848965;28;102873;-88
2021/10/07 03:50:44;;;;;;;;;15.75;13.75;;;;;18.10;53.55;99136.41;4843807;28;102325;-88
2021/10/07 03:53:11;;;;;;;;;14.50;14.50;;;;;18.10;53.46;99139.16;4845053;28;104079;-88
2021/10/07 03:55:38;;;;;;;;;14.75;13.50;;;;;18.10;54.02;99147.34;4841025;28;104136;-88
2021/10/07 03:58:05;;;;;;;;;20.25;18.75;;;;;18.10;54.37;99152.81;4837757;28;103276;-88
2021/10/07 04:00:31;;;;;;;;;16.25;15.50;;;;;18.10;54.27;99147.34;4855203;28;102326;-88
2021/10/07 04:03:03;;;;;;;;;18.25;16.00;;;;;18.08;53.39;99144.84;4847599;28;102565;-88
2021/10/07 04:05:30;;;;;;;;;19.00;16.00;;;;;18.08;53.58;99152.22;4834970;28;109135;-88
2021/10/07 04:07:57;;;;;;;;;14.75;13.25;;;;;18.07;54.44;99136.84;4842433;28;102423;-88
2021/10/07 04:10:24;;;;;;;;;19.00;16.50;;;;;18.07;53.79;99142.34;4837621;28;102409;-88
2021/10/07 04:12:51;;;;;;;;;19.75;17.50;;;;;18.05;53.76;99149.97;4841855;28;104957;-88
2021/10/07 04:15:18;;;;;;;;;16.75;16.00;;;;;18.06;54.06;99152.44;4852788;28;103801;-88
2021/10/07 04:17:45;;;;;;;;;17.75;16.00;;;;;18.06;53.96;99148.88;4839095;28;102254;-88
2021/10/07 04:20:12;;;;;;;;;17.75;16.75;;;;;18.06;54.06;99151.59;4844583;28;102635;-88
2021/10/07 04:22:39;;;;;;;;;15.75;15.50;;;;;18.06;54.18;99154.34;4858545;28;102251;-88
2021/10/07 04:25:06;;;;;;;;;19.25;17.00;;;;;18.05;53.79;99150.78;4842797;28;104105;-88
2021/10/07 04:27:34;;;;;;;;;22.25;16.50;;;;;18.05;53.97;99150.78;4843747;28;103011;-88
2021/10/07 04:30:03;;;;;;;;;16.75;14.50;;;;;18.03;53.79;99147.44;4845264;28;102493;-88
2021/10/07 04:32:30;;;;;;;;;17.75;16.75;;;;;18.03;53.97;99158.41;4829157;28;102909;-88
2021/10/07 04:34:56;;;;;;;;;18.25;17.50;;;;;18.03;53.88;99152.09;4811883;28;104101;-88
2021/10/07 04:37:23;;;;;;;;;19.50;16.75;;;;;18.04;54.47;99148.28;4844109;28;103624;-88
2021/10/07 04:39:50;;;;;;;;;17.25;15.75;;;;;18.04;53.85;99142.81;4830924;28;102803;-88
2021/10/07 04:42:17;;;;;;;;;17.00;14.50;;;;;18.03;54.04;99143.88;4852228;28;103125;-88
2021/10/07 04:44:44;;;;;;;;;14.25;13.50;;;;;18.04;53.96;99151.03;4843356;28;106379;-88
2021/10/07 04:47:11;;;;;;;;;19.00;17.00;;;;;18.04;53.89;99143.66;4835552;28;102615;-88
2021/10/07 04:49:38;;;;;;;;;18.50;17.50;;;;;18.03;53.84;99138.41;4847125;28;102640;-88
2021/10/07 04:52:05;;;;;;;;;17.75;16.00;;;;;18.03;54.09;99149.34;4848014;28;103108;-88
2021/10/07 04:54:32;;;;;;;;;17.75;15.00;;;;;18.03;53.75;99158.41;4847920;28;104446;-88
2021/10/07 04:56:59;;;;;;;;;17.50;15.50;;;;;18.00;53.79;99158.88;4849691;28;102440;-88
2021/10/07 04:59:26;;;;;;;;;18.50;18.00;;;;;18.01;53.72;99165.19;4847607;28;102883;-88
2021/10/07 05:01:53;;;;;;;;;17.00;16.00;;;;;18.02;53.99;99161.34;4839603;28;104362;-88
2021/10/07 05:04:21;;;;;;;;;16.00;15.00;;;;;18.01;54.50;99170.66;4814683;28;104073;-88
2021/10/07 05:06:48;;;;;;;;;17.25;16.50;;;;;18.01;54.18;99176.13;4841147;28;102570;-88
2021/10/07 05:09:15;;;;;;;;;16.75;14.00;;;;;18.01;53.74;99181.59;4848127;28;102671;-88
2021/10/07 05:11:42;;;;;;;;;18.75;17.00;;;;;18.01;54.17;99181.59;4848580;28;102612;-88
2021/10/07 05:14:08;;;;;;;;;16.00;15.25;;;;;18.00;54.51;99185.41;4838460;28;105253;-88
2021/10/07 05:16:35;;;;;;;;;13.00;13.00;;;;;17.99;54.10;99186.47;4847254;28;102231;-88
2021/10/07 05:19:02;;;;;;;;;19.25;16.50;;;;;18.01;54.10;99198.03;4852284;28;102562;-88
2021/10/07 05:21:29;;;;;;;;;18.25;16.25;;;;;18.00;54.04;99188.13;4845622;28;102577;-88
2021/10/07 05:23:57;;;;;;;;;20.50;18.25;;;;;18.00;53.95;99194.44;4841081;28;104053;-88
2021/10/07 05:26:24;;;;;;;;;16.75;15.00;;;;;17.98;54.52;99193.84;4846332;28;102302;-88
2021/10/07 05:28:51;;;;;;;;;14.50;14.00;;;;;17.98;53.63;99198.47;4833915;28;103271;-88
2021/10/07 05:31:18;;;;;;;;;15.50;15.00;;;;;17.98;54.19;99204.78;4850846;28;102634;-88
2021/10/07 05:33:45;;;;;;;;;15.25;14.25;;;;;17.97;53.74;99207.75;4844649;28;104425;-88
2021/10/07 05:36:12;;;;;;;;;15.50;14.50;;;;;17.98;54.31;99210.25;4832517;28;102810;-88
2021/10/07 05:38:39;;;;;;;;;16.00;14.50;;;;;17.98;53.85;99212.16;4841992;28;103287;-88
2021/10/07 05:41:07;;;;;;;;;12.50;10.50;;;;;18.00;53.62;99204.56;4831929;28;102507;-88
2021/10/07 05:43:34;;;;;;;;;16.75;14.00;;;;;17.98;53.84;99212.16;4844493;28;103818;-88
2021/10/07 05:46:01;;;;;;;;;17.50;16.00;;;;;17.95;53.77;99204.41;4853346;28;103455;-88
2021/10/07 05:52:15;;;;;;;;;15.00;14.00;;;;;17.97;53.95;99207.75;4843196;28;102455;-88
2021/10/07 05:54:42;;;;;;;;;16.25;15.00;;;;;17.98;54.44;99206.69;4839155;28;104439;-88
2021/10/07 05:57:09;;;;;;;;;18.50;16.00;;;;;17.97;54.15;99202.28;4837559;28;102570;-88
2021/10/07 05:59:36;;;;;;;;;20.25;17.00;;;;;17.97;54.02;99207.75;4845535;28;103415;-88
2021/10/07 06:02:03;;;;;;;;;16.00;15.00;;;;;17.95;53.85;99208.00;4836988;28;103876;-88
2021/10/07 06:04:31;;;;;;;;;18.50;15.75;;;;;17.95;53.94;99209.91;4825681;28;104314;-88
2021/10/07 06:06:59;;;;;;;;;15.50;15.25;;;;;17.94;54.56;99219.16;4841133;28;102387;-88
2021/10/07 06:09:26;;;;;;;;;16.50;15.75;;;;;17.94;54.57;99213.69;4840788;28;102569;-88
2021/10/07 06:11:53;;;;;;;;;16.75;16.25;;;;;17.95;54.56;99208.00;4849171;28;102975;-88
2021/10/07 06:14:20;;;;;;;;;16.00;15.75;;;;;17.94;53.78;99208.22;4830128;28;104290;-88
2021/10/07 06:16:49;;;;;;;;;12.00;11.25;;;;;17.94;54.14;99217.25;4845301;28;102700;-88
2021/10/07 06:19:19;;;;;;;;;14.25;14.00;;;;;17.94;54.70;99214.53;4834515;28;102596;-88
2021/10/07 06:21:46;;;;;;;;;17.25;15.25;;;;;17.94;54.65;99221.91;4840242;28;102405;-87
2021/10/07 06:24:12;;;;;;;;;16.25;14.75;;;;;17.96;53.76;99222.50;4836138;28;104277;-88
2021/10/07 06:26:39;;;;;;;;;18.00;17.00;;;;;17.95;54.15;99213.47;4835965;28;102401;-88
2021/10/07 06:29:06;;;;;;;;;19.33;15.33;;;;;17.95;54.70;99208.00;4841212;28;103549;-87
2021/10/07 06:31:34;;;;;;;;;19.00;16.75;;;;;17.94;54.74;99216.44;4844698;28;104151;-88
2021/10/07 06:34:01;;;;;;;;;20.75;19.00;;;;;17.94;53.81;99213.69;4848220;28;108709;-88
2021/10/07 06:36:28;;;;;;;;;18.00;16.00;;;;;17.94;54.75;99208.22;4836711;28;103112;-88
2021/10/07 06:38:55;;;;;;;;;18.00;17.00;;;;;17.95;54.32;99209.91;4849318;28;102209;-88
2021/10/07 06:41:22;;;;;;;;;20.25;18.75;;;;;17.94;54.13;99214.53;4844875;28;103596;-88
2021/10/07 06:43:49;;;;;;;;;16.50;16.00;;;;;17.92;54.49;99211.19;4844974;28;110794;-88
2021/10/07 06:46:16;;;;;;;;;18.50;15.75;;;;;17.94;54.87;99219.16;4849554;28;102548;-88
2021/10/07 06:48:44;;;;;;;;;22.50;20.00;;;;;17.93;54.75;99217.50;4846736;28;102403;-88
2021/10/07 06:51:11;;;;;;;;;19.75;16.50;;;;;17.93;54.40;99212.03;4845359;28;102666;-88
2021/10/07 06:53:38;;;;;;;;;19.00;16.00;;;;;17.91;54.72;99225.94;4849292;28;104060;-88
2021/10/07 06:56:05;;;;;;;;;17.50;16.00;;;;;17.95;54.56;99231.78;4838949;28;109666;-87
2021/10/07 06:58:33;;;;;;;;;18.25;15.00;;;;;17.96;54.83;99228.00;4825251;28;102201;-88
2021/10/07 07:01:00;;;;;;;;;24.00;17.25;;;;;17.95;54.74;99229.06;4850776;28;102618;-88
2021/10/07 07:03:27;;;;;;;;;18.00;17.75;;;;;17.93;54.98;99233.91;4822183;28;104188;-88
2021/10/07 07:05:54;;;;;;;;;18.00;17.25;;;;;17.92;55.08;99235.00;4841255;28;102625;-88
2021/10/07 07:08:21;;;;;;;;;15.50;15.50;;;;;17.94;54.60;99224.63;4828777;28;102667;-88
2021/10/07 07:10:48;;;;;;;;;18.50;15.50;;;;;17.94;54.18;99235.59;4841099;28;102500;-88
2021/10/07 07:13:16;;;;;;;;;20.25;17.00;;;;;17.95;54.33;99229.06;4843541;28;104393;-88
2021/10/07 07:15:43;;;;;;;;;17.75;16.00;;;;;17.94;54.61;99236.41;4848112;28;102476;-88
2021/10/07 07:18:10;;;;;;;;;15.75;15.75;;;;;17.95;54.31;99231.78;4827156;28;102503;-88
2021/10/07 07:20:37;;;;;;;;;19.50;17.00;;;;;17.94;54.62;99246.53;4844001;28;102630;-88
2021/10/07 07:23:09;;;;;;;;;19.75;17.00;;;;;17.95;54.99;99248.19;4851936;28;104187;-88
2021/10/07 07:25:36;;;;;;;;;16.25;14.75;;;;;17.95;54.88;99248.19;4831149;28;104285;-88
2021/10/07 07:28:03;;;;;;;;;17.75;16.50;;;;;17.94;54.50;99254.75;4833100;28;102389;-88
2021/10/07 07:30:30;;;;;;;;;20.50;17.50;;;;;17.93;54.43;99258.53;4843525;28;102530;-88
2021/10/07 07:32:57;;;;;;;;;14.50;14.25;;;;;17.94;54.51;99260.22;4836241;28;104001;-88
2021/10/07 07:35:25;;;;;;;;;24.50;16.75;;;;;17.95;54.82;99261.88;4844147;28;103040;-88
2021/10/07 07:37:52;;;;;;;;;17.50;15.25;;;;;17.95;54.99;99265.47;4840337;28;102656;-88
2021/10/07 07:40:19;;;;;;;;;15.67;14.00;;;;;17.96;54.89;99260.81;4836864;28;102682;-88
2021/10/07 07:42:46;;;;;;;;;17.75;17.25;;;;;17.96;55.35;99266.31;4850942;28;104415;-88
2021/10/07 07:45:13;;;;;;;;;21.00;17.50;;;;;17.96;54.67;99269.88;4840416;28;102434;-88
2021/10/07 07:47:54;;;;;;;;;21.00;18.25;;;;;17.96;55.13;99269.03;4836798;28;102622;-88
2021/10/07 07:50:24;;;;;;;;;19.50;16.50;;;;;17.97;55.22;99277.00;4857788;28;102423;-88
2021/10/07 07:52:52;;;;;;;;;19.00;15.00;;;;;17.96;54.92;99278.09;4841384;28;104065;-88
2021/10/07 07:55:21;;;;;;;;;16.00;14.75;;;;;17.97;55.63;99276.16;4820424;28;102490;-88
2021/10/07 07:57:48;;;;;;;;;15.25;15.25;;;;;17.95;55.18;99281.88;4831816;28;102509;-88
2021/10/07 08:00:15;;;;;;;;;17.00;15.25;;;;;17.96;55.77;99274.50;4838672;28;103159;-88
2021/10/07 08:02:42;;;;;;;;;19.25;17.50;;;;;17.95;55.41;99284.63;4838524;28;104254;-88
2021/10/07 08:05:10;;;;;;;;;18.00;15.75;;;;;17.96;54.95;99286.28;4851110;28;103410;-88
2021/10/07 08:07:38;;;;;;;;;19.75;17.25;;;;;17.97;55.73;99290.66;4843409;28;102425;-88
2021/10/07 08:10:05;;;;;;;;;16.50;16.50;;;;;17.98;55.24;99294.25;4846298;28;102192;-88
2021/10/07 08:12:35;;;;;;;;;17.25;16.00;;;;;17.99;54.79;99298.66;4855140;28;109022;-88
2021/10/07 08:15:04;;;;;;;;;17.25;16.00;;;;;18.00;54.79;99294.88;4843155;28;107171;-89
2021/10/07 08:17:31;;;;;;;;;17.00;17.00;;;;;18.01;55.02;99291.06;4829059;28;102609;-88
2021/10/07 08:19:58;;;;;;;;;18.50;16.75;;;;;17.99;54.98;99293.19;4854670;28;102471;-88
2021/10/07 08:22:25;;;;;;;;;16.00;15.00;;;;;18.01;55.28;99305.56;4837570;28;104102;-88
2021/10/07 08:24:53;;;;;;;;;16.00;15.00;;;;;18.00;55.03;99303.91;4829844;28;103693;-88
2021/10/07 08:27:20;;;;;;;;;16.25;15.00;;;;;18.00;55.71;99300.34;4850195;28;102490;-88
2021/10/07 08:29:47;;;;;;;;;15.25;14.75;;;;;17.99;55.85;99296.75;4823761;28;102734;-88
2021/10/07 08:32:14;;;;;;;;;17.50;15.75;;;;;18.00;55.81;99303.06;4835415;28;104062;-88
2021/10/07 08:34:41;;;;;;;;;16.00;16.00;;;;;18.00;56.24;99306.66;4815832;28;102564;-88
2021/10/07 08:37:08;;;;;;;;;12.00;11.50;;;;;18.01;55.57;99315.69;4832853;28;102530;-88
2021/10/07 08:39:35;;;;;;;;;15.25;15.25;;;;;18.00;56.18;99314.03;4834979;28;102205;-88
2021/10/07 08:42:02;;;;;;;;;18.00;17.00;;;;;18.00;56.34;99309.38;4844900;28;108841;-88
2021/10/07 08:44:30;;;;;;;;;15.75;14.00;;;;;18.02;56.06;99314.59;4833715;28;102462;-88
2021/10/07 08:46:57;;;;;;;;;17.00;14.00;;;;;18.04;55.87;99315.22;4844831;28;102556;-88
2021/10/07 08:49:26;;;;;;;;;15.50;15.50;;;;;18.05;56.12;99316.91;4846006;28;102200;-88
2021/10/07 08:51:53;;;;;;;;;14.25;13.00;;;;;18.07;56.13;99312.84;4838599;28;104092;-88
2021/10/07 08:54:20;;;;;;;;;15.00;14.00;;;;;18.08;56.06;99314.53;4849936;28;107526;-88
2021/10/07 08:56:47;;;;;;;;;15.75;14.75;;;;;18.10;55.31;99317.03;4843417;28;102392;-88
2021/10/07 08:59:16;;;;;;;;;13.00;11.75;;;;;18.11;56.10;99314.06;4822745;28;102663;-88
2021/10/07 09:01:48;;;;;;;;;15.50;14.75;;;;;18.09;56.23;99315.38;4832857;28;104301;-88
2021/10/07 09:04:26;;;;;;;;;15.00;14.75;;;;;18.11;55.81;99318.69;4846979;28;102487;-88
2021/10/07 09:06:58;;;;;;;;;19.75;16.00;;;;;18.10;55.92;99325.25;4838025;28;102382;-88
2021/10/07 09:09:26;;;;;;;;;16.00;15.00;;;;;18.09;55.90;99320.84;4847038;28;102152;-88
2021/10/07 09:12:01;;;;;;;;;16.75;14.00;;;;;18.08;55.79;99328.22;4840557;28;104528;-88
2021/10/07 09:14:30;;;;;;;;;14.00;13.25;;;;;18.08;56.32;99324.63;4822100;28;102356;-88
2021/10/07 09:16:58;;;;;;;;;14.00;13.50;;;;;18.07;56.33;99317.50;4850500;28;102514;-88
2021/10/07 09:19:25;;;;;;;;;14.00;13.00;;;;;18.05;56.36;99325.94;4827245;28;102775;-88
2021/10/07 09:21:54;;;;;;;;;14.25;13.75;;;;;18.06;56.24;99322.13;4840980;28;104556;-88
2021/10/07 09:24:36;;;;;;;;;14.50;13.75;;;;;18.09;56.15;99318.09;4843408;28;102782;-88
2021/10/07 09:27:10;;;;;;;;;14.25;12.75;;;;;18.13;56.00;99322.03;4848068;28;102655;-88
2021/10/07 09:29:55;;;;;;;;;15.00;13.00;;;;;18.13;56.27;99333.84;4835455;28;102477;-88
2021/10/07 09:32:36;;;;;;;;;14.00;12.75;;;;;18.13;55.61;99335.72;4839319;28;104120;-88
2021/10/07 09:35:05;;;;;;;;;13.00;12.75;;;;;18.15;55.96;99328.09;4849967;28;103945;-88
2021/10/07 09:37:39;;;;;;;;;13.00;13.00;;;;;18.15;56.28;99325.38;4825078;28;105342;-88
2021/10/07 09:40:09;;;;;;;;;13.50;13.00;;;;;18.15;56.38;99320.72;4837822;28;104372;-88
2021/10/07 09:42:40;;;;;;;;;9.75;9.75;;;;;18.13;55.90;99322.03;4829673;28;109521;-88
2021/10/07 09:45:09;;;;;;;;;13.50;12.00;;;;;18.12;56.39;99323.94;4836651;28;102721;-88
2021/10/07 09:47:41;;;;;;;;;13.50;12.25;;;;;18.11;56.67;99315.94;4845844;28;102543;-88
2021/10/07 09:50:15;;;;;;;;;13.50;12.50;;;;;18.10;56.51;99312.38;4842699;28;102568;-88
2021/10/07 09:52:44;;;;;;;;;15.75;13.50;;;;;18.12;56.39;99323.09;4840412;28;104443;-88
2021/10/07 09:55:18;;;;;;;;;12.50;11.75;;;;;18.11;56.55;99313.22;4844662;28;103161;-88
2021/10/07 09:57:49;;;;;;;;;14.00;13.75;;;;;18.13;56.12;99319.31;4844107;28;103259;-88
2021/10/07 10:00:16;;;;;;;;;14.75;12.50;;;;;18.15;56.05;99325.38;4825162;28;102637;-88
2021/10/07 10:02:43;;;;;;;;;15.00;13.25;;;;;18.17;56.16;99323.25;4830200;28;104415;-88
2021/10/07 10:05:12;;;;;;;;;14.25;14.00;;;;;18.19;56.08;99330.16;4829390;28;102441;-88
2021/10/07 10:07:40;;;;;;;;;14.00;13.25;;;;;18.20;56.30;99322.78;4838935;28;103471;-88
2021/10/07 10:10:07;;;;;;;;;13.00;12.00;;;;;18.21;55.54;99325.28;4829240;28;102675;-88
2021/10/07 10:12:34;;;;;;;;;12.00;12.00;;;;;18.22;56.59;99334.34;4846187;28;108865;-88
2021/10/07 10:15:02;;;;;;;;;11.00;11.00;;;;;18.23;55.98;99325.06;4842619;28;103434;-88
2021/10/07 10:17:29;;;;;;;;;12.25;11.75;;;;;18.23;55.67;99323.16;4850043;28;103697;-88
2021/10/07 10:19:56;;;;;;;;;12.33;11.67;;;;;18.23;56.01;99323.16;4832533;28;102738;-88
2021/10/07 10:22:24;;;;;;;;;13.25;12.75;;;;;18.23;56.06;99323.16;4845464;28;104022;-88
2021/10/07 10:24:51;;;;;;;;;10.33;10.33;;;;;18.24;56.62;99327.56;4836223;28;102505;-88
2021/10/07 10:27:18;;;;;;;;;16.75;13.75;;;;;18.24;56.53;99323.97;4830881;28;103951;-88
2021/10/07 10:29:45;;;;;;;;;13.33;12.33;;;;;18.24;56.32;99324.81;4841626;28;103217;-88
2021/10/07 10:32:12;;;;;;;;;15.00;12.00;;;;;18.23;56.19;99322.31;4851043;28;110296;-88
2021/10/07 10:34:44;;;;;;;;;13.00;12.00;;;;;18.24;56.35;99324.81;4812416;28;102583;-88
2021/10/07 10:37:13;;;;;;;;;13.67;12.00;;;;;18.25;56.30;99334.69;4838734;28;102551;-88
2021/10/07 10:39:45;;;;;;;;;10.00;10.00;;;;;18.25;56.23;99333.88;4812959;28;103172;-88
2021/10/07 10:42:18;;;;;;;;;10.67;10.67;;;;;18.27;56.37;99329.00;4821175;28;104539;-88
2021/10/07 10:44:49;;;;;;;;;13.67;12.33;;;;;18.27;56.28;99329.00;4835598;28;102504;-88
2021/10/07 10:47:24;;;;;;;;;11.67;11.67;;;;;18.29;56.95;99332.31;4837884;28;102247;-88
2021/10/07 10:50:01;;;;;;;;;12.67;12.33;;;;;18.29;56.84;99337.81;4845187;28;102548;-88
2021/10/07 10:52:36;;;;;;;;;13.33;13.00;;;;;18.29;56.68;99332.31;4839150;28;104060;-88
2021/10/07 10:55:06;;;;;;;;;11.67;11.00;;;;;18.30;56.68;99339.47;4821189;28;102477;-88
2021/10/07 10:57:41;;;;;;;;;15.33;13.33;;;;;18.29;56.59;99340.53;4852579;28;110695;-89
2021/10/07 11:00:17;;;;;;;;;13.33;11.67;;;;;18.28;56.58;99336.97;4826185;28;102722;-88
2021/10/07 11:02:45;;;;;;;;;12.00;11.00;;;;;18.29;57.14;99335.91;4835730;28;109346;-88
2021/10/07 11:05:17;;;;;;;;;12.67;11.00;;;;;18.29;57.30;99327.69;4845473;28;103358;-88
2021/10/07 11:07:45;;;;;;;;;11.33;10.33;;;;;18.29;57.57;99327.69;4848953;28;103874;-88
2021/10/07 11:10:28;;;;;;;;;12.67;12.00;;;;;18.27;57.12;99320.78;4823138;28;102490;-88
2021/10/07 11:12:56;;;;;;;;;15.33;12.33;;;;;18.31;56.71;99326.63;4834790;28;104269;-88
2021/10/07 11:15:26;;;;;;;;;10.33;10.00;;;;;18.31;56.74;99326.63;4853511;28;103647;-88
2021/10/07 11:17:54;;;;;;;;;13.00;13.00;;;;;18.33;56.86;99328.06;4836605;28;102251;-88
2021/10/07 11:20:26;;;;;;;;;10.00;10.00;;;;;18.36;57.35;99333.09;4833270;28;102718;-88
2021/10/07 11:23:10;;;;;;;;;11.00;10.00;;;;;18.37;56.85;99334.72;4834211;28;103996;-88